Time;durP1;ratioP1;P1;durP2;ratioP2;P2;SDS_P1;SDS_P2;PMS_P1;PMS_P2;Temp;Humidity;BMP_temperature;BMP_pressure;BME280_temperature;BME280_humidity;BME280_pressure;Samples;Min_cycle;Max_cycle;Signal;HPM_P1;HPM_P2
2022/03/08 00:01:53;;;;;;;9.35;5.80;;;;;;;1.94;63.00;102263.78;5266393;28;20178;-71
2022/03/08 00:04:25;;;;;;;7.82;6.20;;;;;;;1.94;62.55;102267.22;5263256;28;20056;-72
2022/03/08 00:06:57;;;;;;;10.15;5.95;;;;;;;1.94;62.41;102268.94;5264673;28;20028;-71
2022/03/08 00:09:28;;;;;;;8.70;6.13;;;;;;;1.89;62.58;102258.72;5264396;28;20025;-71
2022/03/08 00:12:00;;;;;;;7.38;5.75;;;;;;;1.86;62.10;102256.22;5262647;28;20481;-71
2022/03/08 00:14:33;;;;;;;7.00;5.43;;;;;;;1.86;62.68;102260.56;5264378;28;20021;-71
2022/03/08 00:17:04;;;;;;;7.07;5.30;;;;;;;1.87;63.13;102263.09;5262833;28;20021;-71
2022/03/08 00:19:35;;;;;;;7.65;6.15;;;;;;;1.84;62.73;102262.31;5265351;28;20087;-71
2022/03/08 00:22:06;;;;;;;7.97;6.05;;;;;;;1.79;63.59;102254.69;5264225;28;20508;-69
2022/03/08 00:24:38;;;;;;;8.90;5.75;;;;;;;1.85;62.09;102254.50;5244001;28;20428;-71
2022/03/08 00:27:09;;;;;;;8.63;5.55;;;;;;;1.79;62.21;102253.84;5247208;28;20035;-70
2022/03/08 00:29:40;;;;;;;7.55;5.57;;;;;;;1.76;62.41;102249.59;5263983;28;20032;-71
2022/03/08 00:32:12;;;;;;;7.22;5.43;;;;;;;1.74;62.26;102248.78;5247832;28;20732;-70
2022/03/08 00:34:43;;;;;;;7.43;5.45;;;;;;;1.76;61.88;102257.34;5264430;28;20016;-71
2022/03/08 00:37:14;;;;;;;6.68;5.47;;;;;;;1.76;62.17;102243.56;5246033;28;20076;-71
2022/03/08 00:39:46;;;;;;;8.75;5.55;;;;;;;1.78;62.75;102249.53;5243554;28;20051;-70
2022/03/08 00:42:17;;;;;;;8.05;5.82;;;;;;;1.72;62.16;102240.22;5262729;28;20071;-71
2022/03/08 00:44:49;;;;;;;8.45;5.43;;;;;;;1.69;62.30;102240.28;5247118;28;20063;-71
2022/03/08 00:47:20;;;;;;;7.68;5.50;;;;;;;1.76;64.29;102241.00;5264570;28;20028;-70
2022/03/08 00:49:52;;;;;;;7.65;5.53;;;;;;;1.70;63.18;102249.72;5262649;28;20481;-71
2022/03/08 00:52:23;;;;;;;10.40;5.75;;;;;;;1.72;61.83;102249.72;5264768;28;20471;-70
2022/03/08 00:54:54;;;;;;;8.15;5.40;;;;;;;1.69;61.85;102251.47;5263866;28;20016;-70
2022/03/08 00:57:25;;;;;;;9.07;5.50;;;;;;;1.67;60.93;102240.34;5266092;28;20037;-71
2022/03/08 00:59:57;;;;;;;7.07;5.03;;;;;;;1.72;60.72;102244.53;5263360;28;20021;-70
2022/03/08 01:02:28;;;;;;;8.95;5.75;;;;;;;1.67;61.17;102242.94;5265921;28;20036;-71
2022/03/08 01:04:59;;;;;;;9.23;5.88;;;;;;;1.67;60.92;102247.25;5263106;28;20651;-70
2022/03/08 01:07:31;;;;;;;7.57;5.35;;;;;;;1.69;61.25;102242.88;5264214;28;20047;-71
2022/03/08 01:10:05;;;;;;;7.68;5.40;;;;;;;1.67;60.67;102245.50;5262286;28;20025;-71
2022/03/08 01:12:37;;;;;;;7.43;5.95;;;;;;;1.66;61.56;102237.78;5263064;28;20104;-70
2022/03/08 01:15:09;;;;;;;7.55;4.97;;;;;;;1.66;61.30;102243.78;5261722;28;20032;-71
2022/03/08 01:17:41;;;;;;;7.32;5.43;;;;;;;1.66;60.69;102242.94;5263706;28;20024;-70
2022/03/08 01:20:14;;;;;;;9.02;5.55;;;;;;;1.74;60.09;102245.34;5268353;28;20031;-70
2022/03/08 01:22:45;;;;;;;8.80;5.13;;;;;;;1.70;60.28;102240.28;5266800;28;20128;-70
2022/03/08 01:25:20;;;;;;;6.95;5.47;;;;;;;1.70;59.72;102236.81;5269590;28;20120;-70
2022/03/08 01:27:51;;;;;;;6.85;4.93;;;;;;;1.68;59.99;102234.28;5265925;28;20722;-71
2022/03/08 01:30:24;;;;;;;8.32;4.90;;;;;;;1.76;60.39;102234.09;5266617;28;20112;-71
2022/03/08 01:32:55;;;;;;;8.15;5.72;;;;;;;1.80;59.61;102230.53;5267348;28;20024;-71
2022/03/08 01:35:27;;;;;;;6.95;5.03;;;;;;;1.77;59.45;102225.44;5265942;28;20052;-71
2022/03/08 01:37:58;;;;;;;6.82;5.13;;;;;;;1.76;59.49;102223.75;5263801;28;20541;-70
2022/03/08 01:40:29;;;;;;;8.88;5.53;;;;;;;1.79;59.96;102213.34;5263932;28;20037;-70
2022/03/08 01:43:02;;;;;;;5.63;5.00;;;;;;;1.75;60.47;102209.16;5267769;28;20545;-70
2022/03/08 01:45:34;;;;;;;8.57;5.15;;;;;;;1.76;59.65;102210.84;5268671;28;20037;-71
2022/03/08 01:48:05;;;;;;;8.35;5.32;;;;;;;1.73;59.94;102203.16;5267648;28;20032;-72
2022/03/08 01:50:36;;;;;;;7.70;5.40;;;;;;;1.75;60.36;102205.72;5286989;22;20048;-72
2022/03/08 01:53:08;;;;;;;6.55;5.25;;;;;;;1.76;59.50;102203.09;5291072;28;20016;-72
2022/03/08 01:55:39;;;;;;;6.60;4.90;;;;;;;1.76;58.87;102202.25;5296665;28;20028;-72
2022/03/08 01:58:10;;;;;;;6.68;4.97;;;;;;;1.73;59.48;102198.00;5299784;28;20016;-72
2022/03/08 02:00:42;;;;;;;7.25;4.72;;;;;;;1.75;59.34;102198.81;5298516;28;20051;-72
2022/03/08 02:03:13;;;;;;;6.97;4.82;;;;;;;1.67;59.36;102188.69;5298324;28;20173;-72
2022/03/08 02:05:44;;;;;;;7.40;4.82;;;;;;;1.79;58.84;102191.84;5298963;28;20055;-72
2022/03/08 02:08:16;;;;;;;7.90;4.80;;;;;;;1.75;58.83;102190.22;5298725;28;20097;-72
2022/03/08 02:10:47;;;;;;;7.95;5.30;;;;;;;1.80;58.67;102191.78;5296882;28;20024;-71
2022/03/08 02:13:19;;;;;;;6.95;4.88;;;;;;;1.79;58.71;102186.66;5298573;28;20776;-74
2022/03/08 02:15:51;;;;;;;6.85;4.93;;;;;;;1.74;58.37;102181.59;5298730;28;20492;-72
2022/03/08 02:18:23;;;;;;;7.73;5.10;;;;;;;1.77;59.03;102178.09;5298474;28;20157;-72
2022/03/08 02:20:54;;;;;;;7.28;5.00;;;;;;;1.80;58.28;102186.59;5294946;28;20040;-74
2022/03/08 02:23:25;;;;;;;9.10;5.35;;;;;;;1.81;57.77;102182.28;5295852;28;20028;-72
2022/03/08 02:25:57;;;;;;;6.13;4.80;;;;;;;1.83;58.25;102183.09;5298725;28;20046;-72
2022/03/08 02:28:29;;;;;;;7.13;5.50;;;;;;;1.81;58.33;102190.88;5299001;28;20445;-72
2022/03/08 02:31:00;;;;;;;8.02;5.47;;;;;;;1.74;59.04;102176.44;5297067;28;20083;-71
2022/03/08 02:33:31;;;;;;;6.70;5.20;;;;;;;1.70;58.04;102182.56;5298624;28;20028;-74
2022/03/08 02:36:05;;;;;;;6.88;4.88;;;;;;;1.78;58.02;102179.78;5298191;28;20055;-74
2022/03/08 02:38:37;;;;;;;6.32;4.45;;;;;;;1.69;58.64;102175.72;5297427;28;20055;-74
2022/03/08 02:41:08;;;;;;;7.25;5.15;;;;;;;1.73;58.33;102173.91;5299017;28;20055;-71
2022/03/08 02:43:39;;;;;;;8.75;6.20;;;;;;;1.61;59.36;102163.00;5280099;28;20027;-71
2022/03/08 02:46:11;;;;;;;5.60;5.00;;;;;;;1.65;59.98;102168.94;5298471;28;20483;-71
2022/03/08 02:48:42;;;;;;;6.68;5.30;;;;;;;1.54;59.32;102143.38;5297192;28;20039;-71
2022/03/08 02:51:13;;;;;;;8.43;5.72;;;;;;;1.60;59.11;102145.81;5297806;28;20075;-71
2022/03/08 02:53:45;;;;;;;5.78;5.15;;;;;;;1.59;59.53;102154.47;5298112;28;20024;-74
2022/03/08 02:56:18;;;;;;;8.18;5.45;;;;;;;1.55;60.75;102157.97;5298087;28;20507;-74
2022/03/08 02:58:49;;;;;;;8.95;5.93;;;;;;;1.52;59.69;102158.09;5297136;28;20443;-73
2022/03/08 03:01:20;;;;;;;7.22;5.20;;;;;;;1.56;59.65;102148.53;5277639;28;20085;-74
2022/03/08 03:03:51;;;;;;;7.10;5.30;;;;;;;1.50;59.87;102143.50;5297080;28;20078;-74
2022/03/08 03:06:23;;;;;;;7.55;5.47;;;;;;;1.41;60.16;102134.28;5278276;28;20078;-71
2022/03/08 03:08:54;;;;;;;6.95;5.22;;;;;;;1.43;60.28;102137.66;5298592;28;20035;-74
2022/03/08 03:11:25;;;;;;;7.45;5.32;;;;;;;1.36;60.31;102136.09;5296755;28;20053;-74
2022/03/08 03:13:57;;;;;;;7.75;5.50;;;;;;;1.36;59.94;102125.78;5297781;28;20032;-74
2022/03/08 03:16:28;;;;;;;9.50;5.90;;;;;;;1.34;60.91;102124.97;5297522;28;20061;-71
2022/03/08 03:18:59;;;;;;;7.55;5.72;;;;;;;1.37;60.92;102127.50;5297285;28;20388;-72
2022/03/08 03:21:30;;;;;;;8.68;5.50;;;;;;;1.32;60.85;102113.84;5297348;28;20111;-72
2022/03/08 03:24:02;;;;;;;7.22;5.20;;;;;;;1.25;60.58;102109.72;5297444;28;20405;-72
2022/03/08 03:26:33;;;;;;;6.28;5.15;;;;;;;1.26;61.03;102112.28;5297207;28;20106;-72
2022/03/08 03:29:04;;;;;;;6.90;5.47;;;;;;;1.25;61.09;102108.00;5297147;28;20434;-72
2022/03/08 03:31:36;;;;;;;7.80;5.80;;;;;;;1.17;61.64;102103.00;5296996;28;20030;-72
2022/03/08 03:34:07;;;;;;;6.90;5.35;;;;;;;1.15;61.42;102099.63;5297404;28;20035;-72
2022/03/08 03:36:38;;;;;;;7.13;4.93;;;;;;;1.13;61.72;102093.66;5296610;28;20028;-72
2022/03/08 03:39:10;;;;;;;7.68;5.40;;;;;;;1.13;61.21;102088.50;5297843;28;20012;-72
2022/03/08 03:41:41;;;;;;;6.55;5.03;;;;;;;1.15;61.16;102099.63;5296502;28;20425;-72
2022/03/08 03:44:12;;;;;;;7.70;5.78;;;;;;;1.09;61.93;102096.34;5296156;28;20480;-72
2022/03/08 03:46:44;;;;;;;7.05;4.97;;;;;;;1.10;62.06;102101.50;5296485;28;20070;-72
2022/03/08 03:49:15;;;;;;;7.38;5.43;;;;;;;1.12;61.41;102099.72;5297540;28;20061;-72
2022/03/08 03:51:50;;;;;;;8.32;5.63;;;;;;;1.10;62.26;102098.91;5297129;28;20043;-72
2022/03/08 03:54:22;;;;;;;8.77;5.63;;;;;;;1.03;61.99;102099.94;5296743;28;20024;-72
2022/03/08 03:56:53;;;;;;;10.68;5.57;;;;;;;1.03;61.91;102105.13;5296469;28;20180;-71
2022/03/08 03:59:25;;;;;;;7.75;5.25;;;;;;;0.97;62.28;102105.25;5297058;28;20020;-72
2022/03/08 04:01:56;;;;;;;7.20;4.90;;;;;;;1.01;62.31;102106.03;5296568;28;20077;-71
2022/03/08 04:04:27;;;;;;;7.20;6.10;;;;;;;0.94;62.66;102098.41;5296799;28;20480;-72
2022/03/08 04:06:58;;;;;;;6.90;5.90;;;;;;;0.91;62.85;102097.66;5296725;28;20376;-72
2022/03/08 04:09:30;;;;;;;8.27;5.78;;;;;;;0.97;62.88;102100.09;5296817;28;20036;-72
2022/03/08 04:12:01;;;;;;;9.55;5.40;;;;;;;0.93;62.66;102094.16;5296052;28;20043;-72
2022/03/08 04:14:32;;;;;;;7.57;6.10;;;;;;;0.94;63.25;102095.00;5296671;28;20016;-71
2022/03/08 04:17:04;;;;;;;7.95;5.80;;;;;;;0.88;63.73;102093.44;5278461;28;20024;-72
2022/03/08 04:19:35;;;;;;;6.47;5.38;;;;;;;0.82;63.29;102096.16;5295726;28;20062;-71
2022/03/08 04:22:06;;;;;;;6.78;5.30;;;;;;;0.86;64.27;102084.88;5277908;28;20468;-72
2022/03/08 04:24:38;;;;;;;8.45;6.07;;;;;;;0.90;62.76;102089.06;5296645;28;20461;-71
2022/03/08 04:27:09;;;;;;;8.38;6.13;;;;;;;0.88;63.89;102084.84;5297268;28;20380;-72
2022/03/08 04:29:41;;;;;;;6.90;5.85;;;;;;;0.90;63.05;102090.81;5295120;28;20035;-72
2022/03/08 04:32:12;;;;;;;8.02;6.03;;;;;;;0.94;64.34;102087.25;5296693;28;20023;-74
2022/03/08 04:34:43;;;;;;;7.32;5.78;;;;;;;0.85;63.05;102087.50;5296191;28;20027;-71
2022/03/08 04:37:14;;;;;;;9.43;6.53;;;;;;;0.83;63.41;102086.66;5296146;28;20027;-72
2022/03/08 04:39:46;;;;;;;9.48;6.13;;;;;;;0.86;64.22;102094.34;5296198;28;20155;-72
2022/03/08 04:42:17;;;;;;;7.95;5.70;;;;;;;0.85;63.18;102090.06;5296169;28;20393;-72
2022/03/08 04:44:48;;;;;;;8.85;6.00;;;;;;;0.78;63.57;102091.94;5295543;28;20066;-72
2022/03/08 04:47:20;;;;;;;7.75;6.38;;;;;;;0.75;63.38;102094.59;5296431;28;20101;-71
2022/03/08 04:49:51;;;;;;;6.80;5.88;;;;;;;0.78;63.75;102091.94;5296609;28;20050;-71
2022/03/08 04:52:23;;;;;;;8.20;5.95;;;;;;;0.81;63.21;102088.47;5277473;28;20517;-71
2022/03/08 04:54:54;;;;;;;9.27;5.93;;;;;;;0.77;63.58;102086.84;5298498;28;20523;-72
2022/03/08 04:57:25;;;;;;;10.82;6.20;;;;;;;0.79;63.71;102097.94;5282260;28;20024;-72
2022/03/08 04:59:57;;;;;;;9.10;5.78;;;;;;;0.78;64.17;102083.38;5300809;28;20020;-72
2022/03/08 05:02:29;;;;;;;10.05;5.95;;;;;;;0.77;63.61;102089.41;5298281;28;20024;-72
2022/03/08 05:05:00;;;;;;;7.38;5.72;;;;;;;0.72;63.79;102085.22;5280814;28;20420;-72
2022/03/08 05:07:31;;;;;;;8.52;5.85;;;;;;;0.72;63.63;102086.97;5299799;28;20027;-71
2022/03/08 05:10:05;;;;;;;7.63;6.00;;;;;;;0.75;64.03;102084.28;5300517;28;20031;-72
2022/03/08 05:12:37;;;;;;;9.55;6.30;;;;;;;0.72;63.69;102087.81;5299487;28;20035;-71
2022/03/08 05:15:09;;;;;;;9.60;6.22;;;;;;;0.69;64.32;102081.88;5300323;28;20446;-71
2022/03/08 05:17:40;;;;;;;10.60;6.25;;;;;;;0.69;63.99;102079.28;5299772;28;20034;-72
2022/03/08 05:20:11;;;;;;;7.93;5.90;;;;;;;0.72;63.65;102077.47;5299490;28;20024;-72
2022/03/08 05:22:43;;;;;;;9.93;6.05;;;;;;;0.70;63.96;102076.66;5299645;28;20027;-72
2022/03/08 05:25:16;;;;;;;9.33;5.63;;;;;;;0.69;64.55;102072.41;5300190;28;20044;-72
2022/03/08 05:27:47;;;;;;;8.23;6.18;;;;;;;0.66;64.24;102071.63;5299086;28;20043;-71
2022/03/08 05:30:18;;;;;;;8.55;6.53;;;;;;;0.65;64.32;102070.78;5299500;28;20028;-72
2022/03/08 05:32:49;;;;;;;8.90;6.00;;;;;;;0.67;64.63;102073.31;5299712;28;20116;-72
2022/03/08 05:35:21;;;;;;;8.40;6.65;;;;;;;0.58;64.94;102066.63;5299404;28;20036;-71
2022/03/08 05:37:52;;;;;;;8.85;6.30;;;;;;;0.62;64.60;102064.84;5299921;28;20027;-72
2022/03/08 05:40:24;;;;;;;8.95;6.40;;;;;;;0.66;64.59;102066.47;5299513;28;20030;-72
2022/03/08 05:42:55;;;;;;;7.93;6.05;;;;;;;0.65;65.14;102063.03;5299034;28;20042;-72
2022/03/08 05:45:26;;;;;;;11.25;6.40;;;;;;;0.66;64.64;102071.63;5299916;28;20024;-72
2022/03/08 05:47:57;;;;;;;7.35;6.32;;;;;;;0.64;64.51;102063.06;5299938;28;20392;-72
2022/03/08 05:50:29;;;;;;;9.00;6.70;;;;;;;0.63;64.67;102064.78;5280376;28;20567;-72
2022/03/08 05:53:00;;;;;;;9.07;6.03;;;;;;;0.71;63.98;102077.50;5298403;28;20020;-71
2022/03/08 05:55:32;;;;;;;10.80;6.63;;;;;;;0.66;64.39;102074.19;5281273;28;20522;-71
2022/03/08 05:58:03;;;;;;;8.98;5.93;;;;;;;0.69;64.03;102074.13;5299433;28;20376;-71
2022/03/08 06:00:34;;;;;;;9.00;5.68;;;;;;;0.73;65.60;102071.44;5299209;28;20024;-71
2022/03/08 06:03:05;;;;;;;9.18;5.95;;;;;;;0.73;63.86;102061.13;5298008;28;20023;-73
2022/03/08 06:05:37;;;;;;;8.07;5.78;;;;;;;0.70;64.39;102063.75;5298401;28;20048;-73
2022/03/08 06:08:08;;;;;;;8.45;5.53;;;;;;;0.72;64.17;102062.00;5281087;28;20012;-73
2022/03/08 06:10:40;;;;;;;9.18;6.57;;;;;;;0.63;64.39;102046.75;5299386;28;20115;-73
2022/03/08 06:13:11;;;;;;;9.55;6.35;;;;;;;0.70;64.68;102055.19;5298291;28;20035;-73
2022/03/08 06:15:42;;;;;;;7.40;5.40;;;;;;;0.73;63.63;102058.53;5298543;28;20126;-73
2022/03/08 06:18:14;;;;;;;8.77;5.95;;;;;;;0.71;63.93;102054.28;5280558;28;20031;-71
2022/03/08 06:20:45;;;;;;;9.68;5.93;;;;;;;0.72;64.17;102061.16;5298106;28;20065;-71
2022/03/08 06:23:16;;;;;;;8.48;6.47;;;;;;;0.73;64.07;102061.13;5279821;28;20511;-71
2022/03/08 06:25:48;;;;;;;9.40;6.85;;;;;;;0.73;64.78;102063.69;5297640;28;20395;-71
2022/03/08 06:28:19;;;;;;;8.73;6.32;;;;;;;0.80;63.71;102066.13;5298778;28;20050;-71
2022/03/08 06:30:51;;;;;;;8.43;5.35;;;;;;;0.72;64.64;102066.31;5298136;28;20043;-71
2022/03/08 06:33:22;;;;;;;8.32;5.85;;;;;;;0.80;64.85;102064.41;5297473;28;20165;-73
2022/03/08 06:35:54;;;;;;;7.93;5.80;;;;;;;0.84;63.83;102065.19;5297903;28;20024;-73
2022/03/08 06:38:25;;;;;;;7.47;5.80;;;;;;;0.82;64.62;102062.63;5297340;28;20385;-71
2022/03/08 06:40:56;;;;;;;8.52;5.60;;;;;;;0.84;63.69;102057.44;5296786;28;20023;-72
2022/03/08 06:43:27;;;;;;;7.97;5.57;;;;;;;0.93;64.03;102064.94;5297473;28;20117;-72
2022/03/08 06:45:59;;;;;;;8.80;5.63;;;;;;;0.91;63.76;102053.78;5297839;28;20097;-73
2022/03/08 06:48:30;;;;;;;9.85;6.18;;;;;;;0.95;63.90;102065.75;5295903;28;20536;-73
2022/03/08 06:51:02;;;;;;;7.35;5.50;;;;;;;1.02;63.97;102059.53;5297063;28;20394;-72
2022/03/08 06:53:33;;;;;;;8.48;5.32;;;;;;;0.94;63.48;102051.13;5297536;28;20081;-72
2022/03/08 06:56:04;;;;;;;8.27;6.10;;;;;;;1.06;63.91;102070.63;5297150;28;20035;-72
2022/03/08 06:58:36;;;;;;;7.45;5.78;;;;;;;1.09;62.94;102060.22;5298008;28;20033;-73
2022/03/08 07:01:07;;;;;;;8.45;5.88;;;;;;;1.12;63.21;102061.00;5279585;28;20028;-72
2022/03/08 07:03:39;;;;;;;10.40;6.15;;;;;;;1.17;62.97;102056.53;5297545;28;20020;-72
2022/03/08 07:06:10;;;;;;;15.57;6.50;;;;;;;1.18;61.85;102067.75;5297342;28;20016;-72
2022/03/08 07:08:41;;;;;;;7.70;5.85;;;;;;;1.31;62.24;102052.78;5298094;28;20020;-75
2022/03/08 07:11:13;;;;;;;11.20;5.97;;;;;;;1.34;61.56;102056.13;5297232;28;20027;-74
2022/03/08 07:13:45;;;;;;;9.30;5.90;;;;;;;1.44;61.37;102062.75;5297047;28;20027;-74
2022/03/08 07:16:18;;;;;;;9.02;6.18;;;;;;;1.44;61.04;102054.16;5296375;28;20131;-74
2022/03/08 07:18:49;;;;;;;8.35;6.22;;;;;;;1.53;61.17;102064.22;5297954;28;20485;-74
2022/03/08 07:21:21;;;;;;;9.00;6.35;;;;;;;1.59;60.21;102061.47;5297428;28;20035;-74
2022/03/08 07:23:55;;;;;;;7.78;5.55;;;;;;;1.74;59.36;102086.00;5297032;28;20036;-74
2022/03/08 07:26:26;;;;;;;8.07;5.85;;;;;;;1.80;59.19;102078.09;5296814;28;20024;-74
2022/03/08 07:28:57;;;;;;;10.15;6.30;;;;;;;1.79;59.11;102070.41;5297795;28;20031;-75
2022/03/08 07:31:29;;;;;;;8.60;6.63;;;;;;;1.82;58.90;102078.03;5296744;28;20094;-74
2022/03/08 07:34:00;;;;;;;7.88;6.03;;;;;;;2.01;58.28;102078.34;5296555;28;20020;-74
2022/03/08 07:36:32;;;;;;;8.18;5.82;;;;;;;2.01;57.96;102068.88;5297164;28;20025;-74
2022/03/08 07:39:04;;;;;;;8.00;6.00;;;;;;;2.13;57.81;102081.44;5297069;28;20027;-74
2022/03/08 07:41:35;;;;;;;7.68;5.97;;;;;;;2.19;57.40;102070.91;5278467;28;20466;-74
2022/03/08 07:44:07;;;;;;;9.38;5.75;;;;;;;2.22;57.04;102069.13;5296924;28;20039;-74
2022/03/08 07:46:39;;;;;;;8.55;5.75;;;;;;;2.35;56.58;102062.66;5297107;28;20018;-75
2022/03/08 07:49:10;;;;;;;10.27;6.25;;;;;;;2.37;56.56;102056.56;5296669;28;20085;-74
2022/03/08 07:51:42;;;;;;;7.72;5.88;;;;;;;2.40;56.20;102053.06;5297740;28;20048;-73
2022/03/08 07:54:15;;;;;;;6.65;5.60;;;;;;;2.47;54.88;102054.56;5296916;28;20035;-73
2022/03/08 07:56:46;;;;;;;7.65;5.32;;;;;;;2.60;54.84;102062.75;5297074;28;20514;-74
2022/03/08 07:59:18;;;;;;;6.65;5.53;;;;;;;2.68;54.94;102066.78;5295709;28;20607;-71
2022/03/08 08:01:49;;;;;;;7.35;6.03;;;;;;;2.70;53.62;102047.78;5297026;28;20061;-72
2022/03/08 08:04:20;;;;;;;7.18;6.03;;;;;;;2.90;53.59;102058.31;5296602;28;20444;-72
2022/03/08 08:06:52;;;;;;;8.10;6.05;;;;;;;2.93;53.36;102064.25;5296331;28;20112;-72
2022/03/08 08:09:23;;;;;;;9.02;5.32;;;;;;;3.14;52.80;102062.69;5296633;28;20111;-71
2022/03/08 08:11:55;;;;;;;6.70;5.07;;;;;;;3.19;50.84;102061.69;5296491;28;20270;-72
2022/03/08 08:14:26;;;;;;;8.75;5.55;;;;;;;3.26;51.82;102057.97;5296880;28;20016;-71
2022/03/08 08:16:57;;;;;;;8.60;5.43;;;;;;;3.39;51.27;102060.09;5295861;28;20110;-71
2022/03/08 08:19:29;;;;;;;7.10;5.70;;;;;;;3.40;51.09;102058.34;5296489;28;20538;-72
2022/03/08 08:22:00;;;;;;;8.50;5.68;;;;;;;3.54;50.57;102066.47;5291469;28;20491;-71
2022/03/08 08:24:31;;;;;;;9.77;5.82;;;;;;;3.57;50.09;102066.38;5293552;28;20029;-71
2022/03/08 08:27:03;;;;;;;8.32;5.32;;;;;;;3.54;51.33;102053.50;5295992;28;20016;-72
2022/03/08 08:29:34;;;;;;;7.90;6.03;;;;;;;3.73;50.01;102064.06;5295230;28;20023;-71
2022/03/08 08:32:06;;;;;;;7.18;5.45;;;;;;;3.80;49.64;102067.28;5295461;28;20020;-72
2022/03/08 08:34:37;;;;;;;8.50;5.68;;;;;;;3.87;49.57;102066.16;5295817;28;20028;-72
2022/03/08 08:37:09;;;;;;;8.23;5.40;;;;;;;3.98;49.24;102063.13;5296143;28;20346;-71
2022/03/08 08:39:41;;;;;;;7.65;5.70;;;;;;;4.03;49.08;102069.84;5294945;28;20039;-72
2022/03/08 08:42:12;;;;;;;6.85;5.55;;;;;;;4.11;48.64;102064.38;5295666;28;20028;-72
2022/03/08 08:44:43;;;;;;;7.28;5.43;;;;;;;4.33;48.53;102059.19;5295981;28;20583;-72
2022/03/08 08:47:15;;;;;;;7.47;4.75;;;;;;;4.42;47.55;102058.81;5277466;28;20047;-72
2022/03/08 08:49:46;;;;;;;7.10;5.10;;;;;;;4.46;48.38;102049.19;5296061;28;20020;-72
2022/03/08 08:52:17;;;;;;;7.00;5.10;;;;;;;4.45;46.11;102052.69;5294913;28;20055;-71
2022/03/08 08:54:48;;;;;;;8.27;4.95;;;;;;;4.50;46.20;102043.78;5294204;28;20020;-71
2022/03/08 08:57:20;;;;;;;6.15;4.38;;;;;;;4.63;45.63;102042.41;5275538;28;20029;-72
2022/03/08 08:59:51;;;;;;;8.27;5.50;;;;;;;4.77;45.45;102038.38;5294925;28;20085;-72
2022/03/08 09:02:22;;;;;;;6.18;4.70;;;;;;;4.84;45.29;102053.66;5276677;28;20070;-71
2022/03/08 09:04:54;;;;;;;6.20;4.60;;;;;;;4.97;44.84;102041.00;5294225;28;20030;-71
2022/03/08 09:07:25;;;;;;;8.20;5.10;;;;;;;5.08;44.20;102053.56;5294544;28;20016;-71
2022/03/08 09:09:56;;;;;;;8.45;5.13;;;;;;;5.13;43.59;102062.81;5293106;28;20135;-71
2022/03/08 09:12:28;;;;;;;8.15;5.20;;;;;;;5.21;43.18;102046.06;5292815;28;20405;-71
2022/03/08 09:15:01;;;;;;;8.13;4.55;;;;;;;5.39;42.77;102045.28;5294260;28;20484;-71
2022/03/08 09:17:33;;;;;;;6.00;4.55;;;;;;;5.57;43.89;102052.25;5295124;28;20040;-71
2022/03/08 09:20:06;;;;;;;7.50;4.55;;;;;;;5.66;42.85;102051.00;5294944;28;20016;-71
2022/03/08 09:22:39;;;;;;;5.78;4.97;;;;;;;5.77;42.46;102045.31;5293814;28;20480;-70
2022/03/08 09:25:10;;;;;;;6.78;5.18;;;;;;;5.73;42.32;102033.38;5293787;28;20024;-72
2022/03/08 09:27:41;;;;;;;8.00;4.95;;;;;;;5.88;42.23;102035.28;5295551;28;20016;-71
2022/03/08 09:30:14;;;;;;;7.25;5.20;;;;;;;5.97;41.50;102019.25;5295128;28;20028;-71
2022/03/08 09:32:45;;;;;;;8.20;4.07;;;;;;;6.02;41.64;102014.72;5275365;28;20034;-71
2022/03/08 09:35:16;;;;;;;7.30;4.90;;;;;;;6.15;40.93;102017.56;5294803;28;20111;-71
2022/03/08 09:37:48;;;;;;;6.90;4.40;;;;;;;6.19;40.88;102024.31;5295096;28;20119;-72
2022/03/08 09:40:19;;;;;;;7.57;4.15;;;;;;;6.29;40.47;102020.34;5295195;28;20036;-71
2022/03/08 09:42:52;;;;;;;6.63;4.18;;;;;;;6.41;40.57;102011.13;5297492;28;20032;-71
2022/03/08 09:45:23;;;;;;;7.13;4.93;;;;;;;6.38;39.37;102008.66;5298178;28;20024;-72
2022/03/08 09:47:54;;;;;;;8.80;4.40;;;;;;;6.44;39.25;102005.75;5279765;28;20530;-71
2022/03/08 09:50:25;;;;;;;5.18;4.32;;;;;;;6.53;39.57;102005.28;5258471;28;1067290;-71
2022/03/08 09:52:57;;;;;;;9.57;4.75;;;;;;;6.66;39.39;102028.13;5298728;28;20032;-72
2022/03/08 09:55:28;;;;;;;8.80;4.28;;;;;;;6.70;38.28;102017.47;5299116;28;20400;-71
2022/03/08 09:58:00;;;;;;;9.30;4.57;;;;;;;6.80;38.36;102010.06;5298354;28;20503;-71
2022/03/08 10:00:32;;;;;;;7.03;4.45;;;;;;;6.77;38.55;102003.22;5297041;28;20032;-71
2022/03/08 10:03:10;;;;;;;8.40;4.05;;;;;;;6.88;38.49;102013.09;5298384;28;20103;-71
2022/03/08 10:05:43;;;;;;;7.15;4.40;;;;;;;7.06;38.10;101995.69;5298978;28;20062;-71
2022/03/08 10:08:21;;;;;;;5.63;4.32;;;;;;;7.02;37.51;101994.19;5298302;28;20350;-72
2022/03/08 10:11:01;;;;;;;8.20;4.00;;;;;;;7.16;38.27;101996.91;5298353;28;20016;-71
2022/03/08 10:13:37;;;;;;;6.45;4.38;;;;;;;7.27;37.85;101988.50;5296230;28;20032;-72
2022/03/08 10:16:26;;;;;;;5.97;4.35;;;;;;;7.31;37.24;101995.25;5298390;28;20089;-71
2022/03/08 10:19:02;;;;;;;7.93;4.50;;;;;;;7.36;37.49;101989.81;5298236;28;20623;-72
2022/03/08 10:21:39;;;;;;;6.95;4.40;;;;;;;7.55;37.86;101991.34;5298135;28;20023;-71
2022/03/08 10:24:20;;;;;;;6.85;4.32;;;;;;;7.58;37.53;101982.53;5298368;28;20039;-71
2022/03/08 10:27:01;;;;;;;8.10;4.45;;;;;;;7.67;37.21;101973.34;5297985;28;20488;-71
2022/03/08 10:29:36;;;;;;;7.95;4.55;;;;;;;7.62;36.84;101991.88;5297965;28;20032;-71
2022/03/08 10:32:07;;;;;;;7.45;4.30;;;;;;;7.79;36.63;101981.34;5298375;28;20370;-72
2022/03/08 10:34:39;;;;;;;7.47;4.82;;;;;;;7.92;36.32;101980.69;5297603;28;20031;-72
2022/03/08 10:37:16;;;;;;;5.38;4.10;;;;;;;7.94;36.38;101984.88;5298624;28;20028;-71
2022/03/08 10:39:53;;;;;;;6.53;3.55;;;;;;;8.14;36.68;101977.69;5298872;28;20023;-71
2022/03/08 10:42:27;;;;;;;6.40;4.47;;;;;;;7.87;35.79;101977.47;5297874;28;20081;-71
2022/03/08 10:45:08;;;;;;;8.32;4.30;;;;;;;8.01;35.75;101973.19;5297065;28;20095;-72
2022/03/08 10:47:44;;;;;;;5.97;4.43;;;;;;;7.96;35.66;101967.38;5298061;28;20066;-71
2022/03/08 10:50:18;;;;;;;7.18;4.40;;;;;;;8.20;35.91;101961.69;5298155;28;20044;-72
2022/03/08 10:52:51;;;;;;;5.38;4.13;;;;;;;8.24;36.01;101960.59;5295247;28;20020;-71
2022/03/08 10:55:26;;;;;;;;;;;;;;;8.62;36.17;101963.63;5297534;28;20435;-72
2022/03/08 10:58:02;;;;;;;7.53;4.13;;;;;;;8.36;35.67;101962.50;5298084;28;20010;-72
2022/03/08 11:00:42;;;;;;;7.13;4.40;;;;;;;8.47;35.77;101957.53;5297712;28;20036;-71
2022/03/08 11:03:22;;;;;;;7.47;4.45;;;;;;;8.64;35.71;101959.19;5295679;28;20032;-72
2022/03/08 11:05:56;;;;;;;7.97;4.60;;;;;;;8.54;35.28;101963.25;5297903;28;20146;-72
2022/03/08 11:08:28;;;;;;;6.60;4.43;;;;;;;8.62;35.53;101968.84;5295998;28;20492;-72
2022/03/08 11:11:00;;;;;;;6.45;4.45;;;;;;;8.82;35.65;101966.84;5297279;28;20069;-73
2022/03/08 11:13:31;;;;;;;5.68;4.63;;;;;;;8.80;34.80;101953.88;5296714;28;20027;-74
2022/03/08 11:16:05;;;;;;;9.02;4.13;;;;;;;8.93;34.92;101962.66;5297464;28;20431;-73
2022/03/08 11:18:36;;;;;;;5.88;4.07;;;;;;;9.03;34.91;101955.09;5297168;28;20027;-73
2022/03/08 11:21:08;;;;;;;6.85;4.03;;;;;;;9.10;34.61;101939.91;5297342;28;20392;-74
2022/03/08 11:23:41;;;;;;;7.25;4.20;;;;;;;9.25;34.18;101942.41;5293803;28;20373;-73
2022/03/08 11:26:15;;;;;;;7.00;4.03;;;;;;;9.53;34.71;101939.84;5296055;28;20016;-74
2022/03/08 11:28:48;;;;;;;4.47;4.03;;;;;;;9.63;34.92;101944.41;5276699;28;20507;-73
2022/03/08 11:31:22;;;;;;;6.38;4.15;;;;;;;9.61;34.76;101940.19;5297013;28;20241;-73
2022/03/08 11:34:18;;;;;;;7.70;4.43;;;;;;;9.61;34.81;101934.97;5295558;28;20051;-73
2022/03/08 11:36:59;;;;;;;8.52;4.32;;;;;;;9.48;34.60;101930.50;5296656;28;20024;-73
2022/03/08 11:39:31;;;;;;;8.38;4.35;;;;;;;9.57;33.70;101926.47;5296101;28;20055;-74
2022/03/08 11:42:18;;;;;;;5.85;4.38;;;;;;;9.81;34.09;101942.41;5279001;28;20484;-73
2022/03/08 11:44:57;;;;;;;7.75;4.32;;;;;;;9.73;33.89;101934.19;5296391;28;20027;-74
2022/03/08 11:47:43;;;;;;;6.65;4.43;;;;;;;9.69;33.42;101925.69;5296822;28;20028;-73
2022/03/08 11:50:35;;;;;;;6.28;4.72;;;;;;;9.79;34.06;101917.25;5295611;28;20139;-73
2022/03/08 11:53:24;;;;;;;7.10;4.50;;;;;;;9.89;33.59;101921.81;5296013;28;20031;-73
2022/03/08 11:55:56;;;;;;;7.22;4.40;;;;;;;9.97;33.50;101910.84;5296719;28;20024;-74
2022/03/08 11:58:45;;;;;;;6.35;3.97;;;;;;;10.19;33.83;101912.84;5296482;28;20055;-73